createdAt,value
2023-05-20T00:01:15.323Z,17.03
2023-05-20T00:03:42.187Z,17.03
2023-05-20T00:06:09.143Z,17.01
2023-05-20T00:08:36.107Z,17.00
2023-05-20T00:11:02.795Z,16.99
2023-05-20T00:13:29.567Z,16.98
2023-05-20T00:15:56.380Z,16.97
2023-05-20T00:18:23.120Z,16.94
2023-05-20T00:20:49.843Z,16.91
2023-05-20T00:23:16.556Z,16.91
2023-05-20T00:25:43.265Z,16.92
2023-05-20T00:28:09.988Z,16.95
2023-05-20T00:30:39.140Z,16.95
2023-05-20T00:33:06.593Z,16.94
2023-05-20T00:35:33.695Z,16.94
2023-05-20T00:38:00.559Z,16.92
2023-05-20T00:40:27.262Z,16.91
2023-05-20T00:42:54.718Z,16.88
2023-05-20T00:45:21.402Z,16.86
2023-05-20T00:47:48.194Z,16.84
2023-05-20T00:50:15.065Z,16.81
2023-05-20T00:52:45.131Z,16.80
2023-05-20T00:55:11.914Z,16.81
2023-05-20T00:57:38.924Z,16.82
2023-05-20T01:00:05.940Z,16.81
2023-05-20T01:02:32.773Z,16.79
2023-05-20T01:04:59.632Z,16.79
2023-05-20T01:07:26.341Z,16.74
2023-05-20T01:09:54.358Z,16.72
2023-05-20T01:12:22.768Z,16.69
2023-05-20T01:14:50.261Z,16.65
2023-05-20T01:17:17.981Z,16.62
2023-05-20T01:19:45.132Z,16.60
2023-05-20T01:22:12.702Z,16.58
2023-05-20T01:24:43.143Z,16.56
2023-05-20T01:27:10.645Z,16.53
2023-05-20T01:29:37.831Z,16.50
2023-05-20T01:32:06.043Z,16.48
2023-05-20T01:34:33.058Z,16.49
2023-05-20T01:36:59.795Z,16.49
2023-05-20T01:39:26.791Z,16.50
2023-05-20T01:41:53.759Z,16.50
2023-05-20T01:44:20.667Z,16.49
2023-05-20T01:46:50.917Z,16.48
2023-05-20T01:49:17.711Z,16.48
2023-05-20T01:51:44.638Z,16.45
2023-05-20T01:54:11.367Z,16.41
2023-05-20T01:56:38.150Z,16.38
2023-05-20T01:59:05.096Z,16.33
2023-05-20T02:01:31.888Z,16.28
2023-05-20T02:03:58.661Z,16.24
2023-05-20T02:06:25.731Z,16.22
2023-05-20T02:08:54.647Z,16.20
2023-05-20T02:11:22.000Z,16.17
2023-05-20T02:13:49.716Z,16.15
2023-05-20T02:16:16.558Z,16.13
2023-05-20T02:18:44.210Z,16.09
2023-05-20T02:21:17.095Z,16.05
2023-05-20T02:23:43.910Z,16.04
2023-05-20T02:26:10.701Z,16.03
2023-05-20T02:28:40.503Z,16.01
2023-05-20T02:31:07.243Z,16.00
2023-05-20T02:33:34.220Z,16.01
2023-05-20T02:36:00.944Z,16.00
2023-05-20T02:38:27.893Z,15.99
2023-05-20T02:40:54.704Z,15.98
2023-05-20T02:43:21.579Z,15.97
2023-05-20T02:45:48.353Z,15.96
2023-05-20T02:48:15.080Z,15.95
2023-05-20T02:50:41.933Z,15.93
2023-05-20T02:53:08.680Z,15.92
2023-05-20T02:55:36.103Z,15.91
2023-05-20T02:58:02.989Z,15.91
2023-05-20T03:00:31.390Z,15.93
2023-05-20T03:02:59.057Z,15.93
2023-05-20T03:05:28.070Z,15.94
2023-05-20T03:07:56.234Z,15.95
2023-05-20T03:10:22.991Z,15.95
2023-05-20T03:12:49.778Z,15.95
2023-05-20T03:15:16.643Z,15.95
2023-05-20T03:17:43.392Z,15.95
2023-05-20T03:20:12.384Z,15.95
2023-05-20T03:22:40.132Z,15.95
2023-05-20T03:25:07.081Z,15.95
2023-05-20T03:27:34.551Z,15.95
2023-05-20T03:30:01.672Z,15.94
2023-05-20T03:32:29.231Z,15.96
2023-05-20T03:34:58.203Z,15.98
2023-05-20T03:37:25.196Z,15.98
2023-05-20T03:39:52.069Z,16.00
2023-05-20T03:42:18.842Z,16.02
2023-05-20T03:44:45.762Z,16.05
2023-05-20T03:47:13.376Z,16.08
2023-05-20T03:49:41.209Z,16.12
2023-05-20T03:52:07.949Z,16.15
2023-05-20T03:54:36.216Z,16.17
2023-05-20T03:57:03.683Z,16.19
2023-05-20T03:59:30.502Z,16.22
2023-05-20T04:01:57.375Z,16.25
2023-05-20T04:04:24.489Z,16.28
2023-05-20T04:06:51.268Z,16.32
2023-05-20T04:09:18.894Z,16.38
2023-05-20T04:11:45.684Z,16.46
2023-05-20T04:14:12.501Z,16.51
2023-05-20T04:16:39.918Z,16.58
2023-05-20T04:19:07.291Z,16.67
2023-05-20T04:21:34.058Z,16.77
2023-05-20T04:24:00.838Z,16.85
2023-05-20T04:26:27.612Z,16.93
2023-05-20T04:28:55.528Z,17.00
2023-05-20T04:31:26.958Z,17.08
2023-05-20T04:33:54.049Z,17.16
2023-05-20T04:36:20.767Z,17.21
2023-05-20T04:38:48.218Z,17.27
2023-05-20T04:41:16.127Z,17.36
2023-05-20T04:43:44.204Z,17.42
2023-05-20T04:46:11.139Z,17.42
2023-05-20T04:48:38.024Z,17.42
2023-05-20T04:51:05.049Z,17.42
2023-05-20T04:53:34.095Z,17.43
2023-05-20T04:56:01.338Z,17.49
2023-05-20T04:58:29.679Z,17.60
2023-05-20T05:00:56.804Z,17.71
2023-05-20T05:03:24.107Z,17.80
2023-05-20T05:05:51.012Z,17.88
2023-05-20T05:08:17.802Z,17.98
2023-05-20T05:10:48.847Z,18.07
2023-05-20T05:13:15.890Z,18.20
2023-05-20T05:15:42.676Z,18.33
2023-05-20T05:18:09.664Z,18.51
2023-05-20T05:20:36.616Z,18.76
2023-05-20T05:23:03.414Z,19.08
2023-05-20T05:25:30.182Z,19.42
2023-05-20T05:27:58.243Z,19.77
2023-05-20T05:30:25.187Z,20.09
2023-05-20T05:32:52.135Z,20.35
2023-05-20T05:35:19.061Z,20.62
2023-05-20T05:37:45.836Z,20.89
2023-05-20T05:40:12.757Z,21.17
2023-05-20T05:42:39.999Z,21.42
2023-05-20T05:45:07.452Z,21.64
2023-05-20T05:47:34.301Z,21.88
2023-05-20T05:50:01.684Z,22.13
2023-05-20T05:52:28.820Z,22.38
2023-05-20T05:54:55.758Z,22.59
2023-05-20T05:57:22.684Z,22.67
2023-05-20T05:59:50.662Z,22.65
2023-05-20T06:02:17.623Z,22.65
2023-05-20T06:04:44.539Z,22.66
2023-05-20T06:07:11.460Z,22.68
2023-05-20T06:09:38.392Z,22.77
2023-05-20T06:12:05.286Z,23.04
2023-05-20T06:14:32.636Z,23.42
2023-05-20T06:16:59.494Z,23.94
2023-05-20T06:19:26.691Z,24.47
2023-05-20T06:21:53.503Z,24.96
2023-05-20T06:24:21.956Z,25.40
2023-05-20T06:26:51.195Z,25.81
2023-05-20T06:29:18.072Z,26.15
2023-05-20T06:31:44.814Z,26.45
2023-05-20T06:34:11.565Z,26.60
2023-05-20T06:36:38.286Z,26.50
2023-05-20T06:39:06.533Z,26.17
2023-05-20T06:41:34.320Z,25.84
2023-05-20T06:44:07.835Z,25.49
2023-05-20T06:46:34.664Z,25.14
2023-05-20T06:49:05.413Z,24.80
2023-05-20T06:51:32.184Z,24.47
2023-05-20T06:54:00.178Z,24.24
2023-05-20T06:56:26.969Z,24.09
2023-05-20T06:58:54.945Z,23.96
2023-05-20T07:01:21.897Z,23.85
2023-05-20T07:03:48.654Z,23.73
2023-05-20T07:06:15.629Z,23.70
2023-05-20T07:08:42.411Z,23.71
2023-05-20T07:11:09.521Z,23.81
2023-05-20T07:13:36.313Z,24.13
2023-05-20T07:16:03.173Z,24.58
2023-05-20T07:18:30.082Z,24.91
2023-05-20T07:20:57.711Z,25.18
2023-05-20T07:23:50.688Z,25.45
2023-05-20T07:26:17.497Z,25.79
2023-05-20T07:28:45.646Z,26.11
2023-05-20T07:31:12.453Z,26.35
2023-05-20T07:33:43.078Z,26.58
2023-05-20T07:36:11.256Z,26.85
2023-05-20T07:38:41.012Z,27.22
2023-05-20T07:41:08.572Z,27.52
2023-05-20T07:43:35.382Z,27.88
2023-05-20T07:46:02.923Z,28.27
2023-05-20T07:48:29.671Z,28.56
2023-05-20T07:50:59.186Z,28.67
2023-05-20T07:53:26.673Z,28.71
2023-05-20T07:55:54.226Z,28.85
2023-05-20T07:58:21.710Z,29.20
2023-05-20T08:00:49.749Z,29.37
2023-05-20T08:03:17.359Z,29.32
2023-05-20T08:05:55.709Z,29.23
2023-05-20T08:08:22.557Z,29.15
2023-05-20T08:10:54.864Z,29.13
2023-05-20T08:13:23.797Z,29.05
2023-05-20T08:15:52.547Z,29.22
2023-05-20T08:18:19.312Z,29.65
2023-05-20T08:20:46.759Z,29.98
2023-05-20T08:23:13.592Z,30.37
2023-05-20T08:25:40.323Z,30.74
2023-05-20T08:28:07.609Z,31.04
2023-05-20T08:30:36.349Z,31.15
2023-05-20T08:33:03.179Z,31.09
2023-05-20T08:35:30.204Z,30.88
2023-05-20T08:37:57.069Z,30.58
2023-05-20T08:40:24.670Z,30.51
2023-05-20T08:42:52.949Z,31.04
2023-05-20T08:45:20.847Z,31.59
2023-05-20T08:47:48.030Z,32.05
2023-05-20T08:50:15.149Z,32.45
2023-05-20T08:52:50.989Z,32.75
2023-05-20T08:55:22.811Z,32.80
2023-05-20T08:57:54.578Z,32.90
2023-05-20T09:00:23.576Z,33.14
2023-05-20T09:02:51.870Z,33.42
2023-05-20T09:05:18.820Z,33.59
2023-05-20T09:07:45.623Z,33.83
2023-05-20T09:10:12.324Z,34.08
2023-05-20T09:12:39.123Z,34.29
2023-05-20T09:15:06.457Z,34.61
2023-05-20T09:17:37.037Z,34.86
2023-05-20T09:20:10.893Z,34.85
2023-05-20T09:22:38.738Z,34.62
2023-05-20T09:25:06.622Z,34.46
2023-05-20T09:27:33.831Z,34.52
2023-05-20T09:30:01.029Z,34.42
2023-05-20T09:32:29.009Z,34.52
2023-05-20T09:34:56.068Z,34.70
2023-05-20T09:37:22.837Z,35.04
2023-05-20T09:40:10.233Z,35.09
2023-05-20T09:42:42.327Z,34.76
2023-05-20T09:45:09.554Z,35.05
2023-05-20T09:47:38.743Z,35.40
2023-05-20T09:50:07.766Z,35.66
2023-05-20T09:52:38.272Z,35.89
2023-05-20T09:55:10.402Z,36.14
2023-05-20T09:57:37.406Z,36.05
2023-05-20T10:00:08.691Z,36.10
2023-05-20T10:02:42.379Z,36.35
2023-05-20T10:05:11.169Z,36.55
2023-05-20T10:07:44.123Z,36.56
2023-05-20T10:10:10.962Z,36.56
2023-05-20T10:12:37.660Z,36.61
2023-05-20T10:15:23.061Z,36.70
2023-05-20T10:17:55.857Z,36.73
2023-05-20T10:20:22.688Z,36.72
2023-05-20T10:22:56.209Z,36.46
2023-05-20T10:25:29.099Z,36.32
2023-05-20T10:28:07.899Z,36.17
2023-05-20T10:30:35.262Z,36.06
2023-05-20T10:33:05.861Z,35.54
2023-05-20T10:35:32.877Z,34.57
2023-05-20T10:38:12.150Z,33.46
2023-05-20T10:40:39.144Z,32.27
2023-05-20T10:43:12.758Z,31.39
2023-05-20T10:45:49.780Z,30.73
2023-05-20T10:48:29.489Z,30.10
2023-05-20T10:50:57.246Z,29.60
2023-05-20T10:53:33.448Z,29.19
2023-05-20T10:56:00.777Z,28.82
2023-05-20T10:58:27.633Z,28.34
2023-05-20T11:00:54.772Z,27.91
2023-05-20T11:03:22.118Z,27.59
2023-05-20T11:05:49.100Z,27.32
2023-05-20T11:08:27.674Z,27.08
2023-05-20T11:10:56.419Z,26.88
2023-05-20T11:13:23.141Z,26.72
2023-05-20T11:15:50.260Z,26.59
2023-05-20T11:18:18.850Z,26.51
2023-05-20T11:20:46.562Z,26.40
2023-05-20T11:23:14.077Z,26.21
2023-05-20T11:25:40.936Z,26.05
2023-05-20T11:28:17.797Z,25.90
2023-05-20T11:30:44.580Z,25.85
2023-05-20T11:33:14.951Z,25.80
2023-05-20T11:35:45.912Z,25.74
2023-05-20T11:38:12.932Z,25.64
2023-05-20T11:40:50.440Z,25.57
2023-05-20T11:43:17.691Z,25.54
2023-05-20T11:45:44.935Z,25.51
2023-05-20T11:48:15.795Z,25.46
2023-05-20T11:50:43.293Z,25.41
2023-05-20T11:53:10.611Z,25.34
2023-05-20T11:55:47.265Z,25.29
2023-05-20T11:58:17.834Z,25.19
2023-05-20T12:03:17.243Z,25.08
2023-05-20T12:05:44.074Z,25.04
2023-05-20T12:08:10.861Z,25.03
2023-05-20T12:10:38.135Z,25.04
2023-05-20T12:13:08.492Z,25.06
2023-05-20T12:15:36.286Z,25.03
2023-05-20T12:18:03.444Z,25.01
2023-05-20T12:20:31.042Z,25.02
2023-05-20T12:22:57.856Z,25.04
2023-05-20T12:25:24.606Z,24.99
2023-05-20T12:27:51.377Z,24.87
2023-05-20T12:30:18.509Z,24.73
2023-05-20T12:32:45.464Z,24.55
2023-05-20T12:35:12.239Z,24.39
2023-05-20T12:37:39.346Z,24.31
2023-05-20T12:40:08.474Z,24.28
2023-05-20T12:42:41.519Z,24.25
2023-05-20T12:45:09.017Z,24.25
2023-05-20T12:47:35.760Z,24.23
2023-05-20T12:50:02.703Z,24.22
2023-05-20T12:52:29.425Z,24.18
2023-05-20T12:54:56.395Z,24.12
2023-05-20T12:57:23.513Z,24.05
2023-05-20T12:59:50.370Z,24.00
2023-05-20T13:02:17.096Z,23.98
2023-05-20T13:04:43.866Z,23.95
2023-05-20T13:07:10.703Z,23.96
2023-05-20T13:09:37.371Z,23.97
2023-05-20T13:12:04.188Z,23.95
2023-05-20T13:14:31.919Z,23.93
2023-05-20T13:16:58.806Z,23.89
2023-05-20T13:19:26.110Z,23.82
2023-05-20T13:21:54.709Z,23.78
2023-05-20T13:24:21.824Z,23.75
2023-05-20T13:26:48.607Z,23.70
2023-05-20T13:29:15.475Z,23.67
2023-05-20T13:31:42.125Z,23.67
2023-05-20T13:34:08.921Z,23.67
2023-05-20T13:36:35.776Z,23.68
2023-05-20T13:39:02.569Z,23.67
2023-05-20T13:41:30.266Z,23.66
2023-05-20T13:43:57.136Z,23.67
2023-05-20T13:46:23.939Z,23.70
2023-05-20T13:48:50.781Z,23.70
2023-05-20T13:51:17.596Z,23.70
2023-05-20T13:53:44.353Z,23.70
2023-05-20T13:56:11.163Z,23.68
2023-05-20T13:58:37.912Z,23.72
2023-05-20T14:01:05.079Z,23.73
2023-05-20T14:03:33.332Z,23.73
2023-05-20T14:06:00.731Z,23.70
2023-05-20T14:08:27.565Z,23.65
2023-05-20T14:10:55.552Z,23.59
2023-05-20T14:13:22.636Z,23.55
2023-05-20T14:15:50.741Z,23.53
2023-05-20T14:18:17.914Z,23.55
2023-05-20T14:20:45.477Z,23.55
2023-05-20T14:23:12.273Z,23.54
2023-05-20T14:25:39.012Z,23.55
2023-05-20T14:28:05.897Z,23.53
2023-05-20T14:30:32.895Z,23.50
2023-05-20T14:33:00.062Z,23.48
2023-05-20T14:35:27.164Z,23.45
2023-05-20T14:37:54.022Z,23.43
2023-05-20T14:40:21.193Z,23.41
2023-05-20T14:42:47.923Z,23.39
2023-05-20T14:45:14.588Z,23.37
2023-05-20T14:47:41.312Z,23.33
2023-05-20T14:50:08.245Z,23.28
2023-05-20T14:52:34.965Z,23.22
2023-05-20T14:55:01.725Z,23.17
2023-05-20T14:57:28.480Z,23.12
2023-05-20T14:59:55.693Z,23.08
2023-05-20T15:02:22.625Z,23.05
2023-05-20T15:04:49.504Z,23.02
2023-05-20T15:07:16.588Z,22.97
2023-05-20T15:09:43.965Z,22.93
2023-05-20T15:12:11.266Z,22.89
2023-05-20T15:14:38.060Z,22.83
2023-05-20T15:17:05.141Z,22.78
2023-05-20T15:19:32.613Z,22.72
2023-05-20T15:21:59.691Z,22.66
2023-05-20T15:24:26.373Z,22.59
2023-05-20T15:26:53.460Z,22.50
2023-05-20T15:29:20.248Z,22.41
2023-05-20T15:31:47.027Z,22.36
2023-05-20T15:34:13.866Z,22.30
2023-05-20T15:36:40.555Z,22.24
2023-05-20T15:39:07.364Z,22.20
2023-05-20T15:41:34.240Z,22.16
2023-05-20T15:44:00.993Z,22.13
2023-05-20T15:46:27.761Z,22.11
2023-05-20T15:48:56.373Z,22.10
2023-05-20T15:51:23.335Z,22.09
2023-05-20T15:53:50.476Z,22.08
2023-05-20T15:56:17.394Z,22.07
2023-05-20T15:58:44.490Z,22.04
2023-05-20T16:01:11.236Z,22.02
2023-05-20T16:03:38.133Z,22.00
2023-05-20T16:06:05.020Z,21.98
2023-05-20T16:08:31.815Z,21.94
2023-05-20T16:10:58.565Z,21.92
2023-05-20T16:13:25.469Z,21.89
2023-05-20T16:15:52.300Z,21.89
2023-05-20T16:18:19.201Z,21.88
2023-05-20T16:20:45.925Z,21.87
2023-05-20T16:23:12.658Z,21.83
2023-05-20T16:25:39.462Z,21.82
2023-05-20T16:28:06.171Z,21.82
2023-05-20T16:30:33.030Z,21.80
2023-05-20T16:33:00.149Z,21.78
2023-05-20T16:35:26.923Z,21.74
2023-05-20T16:37:53.676Z,21.72
2023-05-20T16:40:20.617Z,21.70
2023-05-20T16:42:47.380Z,21.66
2023-05-20T16:45:14.082Z,21.62
2023-05-20T16:47:40.942Z,21.58
2023-05-20T16:50:08.094Z,21.52
2023-05-20T16:52:35.737Z,21.48
2023-05-20T16:55:04.624Z,21.43
2023-05-20T16:57:32.639Z,21.40
2023-05-20T16:59:59.454Z,21.36
2023-05-20T17:02:26.588Z,21.32
2023-05-20T17:04:53.329Z,21.28
2023-05-20T17:07:20.100Z,21.25
2023-05-20T17:09:46.872Z,21.20
2023-05-20T17:12:13.630Z,21.14
2023-05-20T17:14:40.467Z,21.08
2023-05-20T17:17:09.426Z,21.02
2023-05-20T17:19:36.503Z,20.95
2023-05-20T17:22:03.336Z,20.90
2023-05-20T17:24:30.038Z,20.84
2023-05-20T17:26:56.776Z,20.77
2023-05-20T17:29:23.634Z,20.71
2023-05-20T17:31:50.465Z,20.65
2023-05-20T17:34:17.226Z,20.59
2023-05-20T17:36:43.943Z,20.54
2023-05-20T17:39:10.732Z,20.47
2023-05-20T17:41:37.537Z,20.42
2023-05-20T17:44:04.336Z,20.37
2023-05-20T17:46:31.186Z,20.31
2023-05-20T17:48:57.899Z,20.23
2023-05-20T17:51:24.587Z,20.16
2023-05-20T17:53:51.873Z,20.10
2023-05-20T17:56:18.560Z,20.05
2023-05-20T17:58:45.483Z,20.00
2023-05-20T18:01:12.428Z,19.94
2023-05-20T18:03:39.994Z,19.88
2023-05-20T18:06:06.984Z,19.82
2023-05-20T18:08:33.962Z,19.75
2023-05-20T18:11:00.719Z,19.70
2023-05-20T18:13:27.491Z,19.63
2023-05-20T18:15:54.318Z,19.57
2023-05-20T18:18:21.214Z,19.50
2023-05-20T18:20:47.994Z,19.44
2023-05-20T18:23:14.799Z,19.37
2023-05-20T18:25:42.812Z,19.32
2023-05-20T18:28:10.806Z,19.26
2023-05-20T18:30:37.785Z,19.18
2023-05-20T18:33:04.905Z,19.11
2023-05-20T18:35:31.745Z,19.03
2023-05-20T18:37:58.514Z,18.94
2023-05-20T18:40:25.293Z,18.84
2023-05-20T18:42:52.114Z,18.74
2023-05-20T18:45:19.007Z,18.63
2023-05-20T18:47:45.762Z,18.49
2023-05-20T18:50:12.557Z,18.37
2023-05-20T18:52:39.301Z,18.28
2023-05-20T18:55:06.496Z,18.19
2023-05-20T18:57:33.272Z,18.12
2023-05-20T19:00:00.108Z,18.05
2023-05-20T19:02:26.836Z,17.98
2023-05-20T19:04:53.642Z,17.91
2023-05-20T19:07:20.606Z,17.84
2023-05-20T19:09:47.302Z,17.78
2023-05-20T19:12:13.959Z,17.72
2023-05-20T19:14:40.959Z,17.67
2023-05-20T19:17:07.861Z,17.61
2023-05-20T19:19:34.744Z,17.55
2023-05-20T19:22:01.560Z,17.49
2023-05-20T19:24:31.709Z,17.44
2023-05-20T19:26:58.574Z,17.38
2023-05-20T19:29:25.378Z,17.32
2023-05-20T19:31:52.075Z,17.26
2023-05-20T19:34:18.772Z,17.21
2023-05-20T19:36:45.613Z,17.16
2023-05-20T19:39:12.393Z,17.12
2023-05-20T19:41:39.323Z,17.05
2023-05-20T19:44:06.612Z,17.01
2023-05-20T19:46:33.488Z,16.95
2023-05-20T19:49:00.556Z,16.89
2023-05-20T19:51:27.323Z,16.85
2023-05-20T19:53:54.235Z,16.82
2023-05-20T19:56:23.998Z,16.79
2023-05-20T19:58:51.576Z,16.75
2023-05-20T20:01:18.789Z,16.68
2023-05-20T20:03:46.165Z,16.61
2023-05-20T20:06:13.027Z,16.54
2023-05-20T20:08:40.111Z,16.48
2023-05-20T20:11:06.948Z,16.41
2023-05-20T20:13:33.932Z,16.34
2023-05-20T20:16:01.005Z,16.29
2023-05-20T20:18:27.712Z,16.22
2023-05-20T20:20:54.471Z,16.15
2023-05-20T20:23:21.412Z,16.07
2023-05-20T20:25:51.194Z,16.00
2023-05-20T20:28:20.272Z,15.91
2023-05-20T20:30:47.315Z,15.81
2023-05-20T20:33:14.129Z,15.70
2023-05-20T20:35:41.313Z,15.59
2023-05-20T20:38:11.047Z,15.46
2023-05-20T20:40:39.269Z,15.32
2023-05-20T20:43:06.967Z,15.20
2023-05-20T20:45:34.151Z,15.15
2023-05-20T20:48:01.478Z,15.12
2023-05-20T20:50:28.458Z,15.08
2023-05-20T20:52:55.179Z,15.03
2023-05-20T20:55:23.557Z,14.97
2023-05-20T20:57:51.165Z,14.92
2023-05-20T21:00:21.049Z,14.88
2023-05-20T21:02:48.082Z,14.83
2023-05-20T21:05:16.800Z,14.77
2023-05-20T21:07:46.110Z,14.68
2023-05-20T21:10:13.122Z,14.60
2023-05-20T21:12:40.081Z,14.49
2023-05-20T21:15:07.186Z,14.41
2023-05-20T21:17:33.953Z,14.34
2023-05-20T21:20:00.721Z,14.32
2023-05-20T21:22:27.385Z,14.30
2023-05-20T21:24:54.108Z,14.29
2023-05-20T21:27:20.993Z,14.28
2023-05-20T21:29:48.594Z,14.25
2023-05-20T21:32:15.282Z,14.23
2023-05-20T21:34:42.039Z,14.21
2023-05-20T21:37:08.687Z,14.17
2023-05-20T21:39:35.887Z,14.14
2023-05-20T21:42:02.620Z,14.13
2023-05-20T21:44:29.382Z,14.11
2023-05-20T21:46:56.239Z,14.08
2023-05-20T21:49:23.115Z,14.05
2023-05-20T21:51:49.868Z,14.00
2023-05-20T21:54:16.546Z,13.96
2023-05-20T21:56:43.253Z,13.91
2023-05-20T21:59:09.951Z,13.88
2023-05-20T22:01:36.707Z,13.84
2023-05-20T22:04:03.988Z,13.82
2023-05-20T22:06:30.748Z,13.79
2023-05-20T22:08:57.459Z,13.74
2023-05-20T22:11:24.320Z,13.70
2023-05-20T22:13:51.067Z,13.65
2023-05-20T22:16:18.829Z,13.59
2023-05-20T22:18:47.803Z,13.55
2023-05-20T22:21:14.576Z,13.52
2023-05-20T22:23:41.344Z,13.49
2023-05-20T22:26:11.026Z,13.49
2023-05-20T22:28:37.699Z,13.48
2023-05-20T22:31:04.519Z,13.46
2023-05-20T22:33:31.926Z,13.40
2023-05-20T22:35:59.533Z,13.32
2023-05-20T22:38:27.319Z,13.27
2023-05-20T22:40:54.187Z,13.23
2023-05-20T22:43:23.793Z,13.21
2023-05-20T22:45:50.492Z,13.20
2023-05-20T22:48:17.321Z,13.19
2023-05-20T22:50:44.010Z,13.18
2023-05-20T22:53:11.189Z,13.18
2023-05-20T22:55:38.840Z,13.18
2023-05-20T22:58:05.553Z,13.16
2023-05-20T23:00:32.211Z,13.13
2023-05-20T23:02:59.084Z,13.12
2023-05-20T23:05:26.450Z,13.11
2023-05-20T23:07:53.870Z,13.09
2023-05-20T23:10:20.832Z,13.08
2023-05-20T23:12:47.512Z,13.07
2023-05-20T23:15:14.223Z,13.06
2023-05-20T23:17:44.296Z,13.04
2023-05-20T23:20:14.168Z,13.03
2023-05-20T23:22:41.175Z,13.02
2023-05-20T23:25:08.174Z,13.00
2023-05-20T23:27:34.999Z,12.99
2023-05-20T23:30:02.146Z,12.98
2023-05-20T23:32:28.891Z,12.97
2023-05-20T23:34:55.715Z,12.97
2023-05-20T23:37:22.538Z,12.99
2023-05-20T23:39:49.248Z,12.99
2023-05-20T23:42:16.270Z,12.99
2023-05-20T23:44:43.023Z,12.97
2023-05-20T23:47:09.758Z,12.96
2023-05-20T23:49:37.163Z,12.93
2023-05-20T23:52:04.295Z,12.90
2023-05-20T23:54:34.154Z,12.86
2023-05-20T23:57:01.049Z,12.82
2023-05-20T23:59:28.035Z,12.79
